createdAt,value
2019-05-16T00:00:08.304Z,102425.12
2019-05-16T00:02:51.972Z,102417.53
2019-05-16T00:05:51.442Z,102414.21
2019-05-16T00:08:21.230Z,102411.72
2019-05-16T00:10:59.963Z,102412.75
2019-05-16T00:13:44.193Z,102412.41
2019-05-16T00:16:30.411Z,102415.71
2019-05-16T00:19:09.020Z,102413.22
2019-05-16T00:21:52.083Z,102400.84
2019-05-16T00:24:42.722Z,102397.48
2019-05-16T00:27:28.051Z,102398.75
2019-05-16T00:30:13.164Z,102393.06
2019-05-16T00:32:58.712Z,102397.14
2019-05-16T00:35:35.200Z,102406.23
2019-05-16T00:38:08.827Z,102393.34
2019-05-16T00:40:49.026Z,102393.91
2019-05-16T00:43:25.968Z,102389.45
2019-05-16T00:46:05.443Z,102389.55
2019-05-16T00:48:43.362Z,102391.92
2019-05-16T00:51:28.799Z,102400.13
2019-05-16T00:54:13.791Z,102388.17
2019-05-16T00:56:57.834Z,102385.63
2019-05-16T00:59:38.194Z,102386.69
2019-05-16T01:02:19.694Z,102388.64
2019-05-16T01:05:02.828Z,102383.02
2019-05-16T01:07:32.173Z,102375.93
2019-05-16T01:10:05.429Z,102373.30
2019-05-16T01:12:48.083Z,102376.86
2019-05-16T01:21:00.613Z,102373.56
2019-05-16T01:26:25.931Z,102360.07
2019-05-16T01:28:57.625Z,102368.38
2019-05-16T01:31:27.991Z,102367.55
2019-05-16T01:33:58.397Z,102357.78
2019-05-16T01:36:36.792Z,102362.78
2019-05-16T01:39:08.080Z,102362.86
2019-05-16T01:41:52.735Z,102354.89
2019-05-16T01:44:44.548Z,102355.81
2019-05-16T01:47:28.842Z,102353.71
2019-05-16T01:50:10.519Z,102355.64
2019-05-16T01:52:57.874Z,102352.50
2019-05-16T01:55:48.894Z,102343.61
2019-05-16T02:01:13.078Z,102342.27
2019-05-16T02:03:40.844Z,102342.69
2019-05-16T02:06:09.983Z,102336.86
2019-05-16T02:08:39.141Z,102333.23
2019-05-16T02:11:08.656Z,102342.89
2019-05-16T02:13:39.112Z,102335.63
2019-05-16T02:16:08.402Z,102330.09
2019-05-16T02:18:38.233Z,102326.92
2019-05-16T02:21:07.923Z,102326.84
2019-05-16T02:23:38.176Z,102324.91
2019-05-16T02:26:08.018Z,102324.31
2019-05-16T02:28:40.856Z,102327.75
2019-05-16T02:31:11.891Z,102331.21
2019-05-16T02:33:40.616Z,102327.52
2019-05-16T02:36:10.926Z,102320.28
2019-05-16T02:38:42.213Z,102317.60
2019-05-16T02:41:11.421Z,102318.52
2019-05-16T02:43:41.954Z,102313.66
2019-05-16T02:46:12.222Z,102307.87
2019-05-16T02:48:41.559Z,102311.91
2019-05-16T02:51:11.345Z,102314.03
2019-05-16T02:53:41.549Z,102304.16
2019-05-16T02:56:12.275Z,102313.94
2019-05-16T02:58:44.882Z,102308.94
2019-05-16T03:01:12.985Z,102312.88
2019-05-16T03:03:43.988Z,102310.15
2019-05-16T03:06:14.813Z,102308.34
2019-05-16T03:08:45.020Z,102307.45
2019-05-16T03:11:14.561Z,102298.37
2019-05-16T03:13:46.925Z,102290.21
2019-05-16T03:16:22.752Z,102291.45
2019-05-16T03:19:04.184Z,102286.03
2019-05-16T03:21:44.136Z,102287.34
2019-05-16T03:24:26.219Z,102279.17
2019-05-16T03:27:10.660Z,102276.39
2019-05-16T03:29:43.613Z,102275.41
2019-05-16T03:32:18.006Z,102272.62
2019-05-16T03:34:55.490Z,102276.09
2019-05-16T03:37:25.381Z,102274.18
2019-05-16T03:39:54.830Z,102277.70
2019-05-16T03:42:23.910Z,102274.91
2019-05-16T03:44:53.079Z,102278.88
2019-05-16T03:47:22.243Z,102286.44
2019-05-16T03:49:51.910Z,102277.91
2019-05-16T03:52:21.164Z,102280.95
2019-05-16T03:54:50.856Z,102280.91
2019-05-16T03:57:21.283Z,102274.08
2019-05-16T03:59:51.782Z,102271.76
2019-05-16T04:02:21.557Z,102275.28
2019-05-16T04:04:51.074Z,102276.94
2019-05-16T04:09:53.685Z,102268.17
2019-05-16T04:12:32.204Z,102271.44
2019-05-16T04:17:43.470Z,102266.37
2019-05-16T04:20:21.228Z,102276.15
2019-05-16T04:23:02.827Z,102273.87
2019-05-16T04:25:41.547Z,102266.63
2019-05-16T04:28:11.510Z,102268.91
2019-05-16T04:30:41.620Z,102269.38
2019-05-16T04:33:10.963Z,102268.39
2019-05-16T04:35:47.097Z,102276.35
2019-05-16T04:38:31.742Z,102268.17
2019-05-16T04:40:51.853Z,102266.24
2019-05-16T04:43:24.803Z,102258.94
2019-05-16T04:46:05.399Z,102258.84
2019-05-16T04:48:45.714Z,102257.85
2019-05-16T04:51:30.519Z,102257.75
2019-05-16T04:54:13.583Z,102260.33
2019-05-16T04:56:56.506Z,102256.63
2019-05-16T04:59:31.239Z,102259.21
2019-05-16T05:02:02.330Z,102259.21
2019-05-16T05:04:32.100Z,102253.31
2019-05-16T05:07:05.362Z,102256.30
2019-05-16T05:09:42.487Z,102249.88
2019-05-16T05:12:23.703Z,102252.81
2019-05-16T05:15:01.395Z,102256.72
2019-05-16T05:17:50.144Z,102252.88
2019-05-16T05:20:33.405Z,102249.95
2019-05-16T05:23:11.621Z,102261.91
2019-05-16T05:25:54.383Z,102257.76
2019-05-16T05:28:30.016Z,102260.75
2019-05-16T05:31:11.061Z,102258.34
2019-05-16T05:33:53.953Z,102254.61
2019-05-16T05:36:34.849Z,102246.44
2019-05-16T05:39:15.771Z,102242.69
2019-05-16T05:41:56.929Z,102243.52
2019-05-16T05:44:44.955Z,102237.06
2019-05-16T05:47:21.307Z,102246.80
2019-05-16T05:49:56.990Z,102244.80
2019-05-16T05:52:33.606Z,102249.58
2019-05-16T05:55:12.844Z,102250.27
2019-05-16T05:58:01.035Z,102251.38
2019-05-16T06:00:41.925Z,102246.34
2019-05-16T06:03:25.851Z,102238.45
2019-05-16T06:06:01.337Z,102247.11
2019-05-16T06:08:33.563Z,102247.45
2019-05-16T06:11:11.977Z,102245.98
2019-05-16T06:13:42.102Z,102245.83
2019-05-16T06:16:11.245Z,102238.49
2019-05-16T06:18:40.668Z,102242.81
2019-05-16T06:21:11.442Z,102248.21
2019-05-16T06:23:40.906Z,102239.05
2019-05-16T06:26:12.170Z,102240.81
2019-05-16T06:28:41.402Z,102230.83
2019-05-16T06:31:14.107Z,102235.16
2019-05-16T06:33:41.956Z,102229.13
2019-05-16T06:36:11.262Z,102230.09
2019-05-16T06:38:40.675Z,102223.47
2019-05-16T06:41:19.842Z,102223.00
2019-05-16T06:43:50.688Z,102216.80
2019-05-16T06:46:20.254Z,102218.92
2019-05-16T06:48:50.555Z,102207.66
2019-05-16T06:51:20.248Z,102211.70
2019-05-16T06:53:50.010Z,102213.46
2019-05-16T06:56:20.448Z,102206.17
2019-05-16T06:58:51.887Z,102213.33
2019-05-16T07:01:21.096Z,102211.57
2019-05-16T07:03:50.880Z,102210.09
2019-05-16T07:06:45.424Z,102202.08
2019-05-16T07:08:52.616Z,102200.69
2019-05-16T07:11:21.782Z,102198.45
2019-05-16T07:13:52.733Z,102197.18
2019-05-16T07:16:25.630Z,102204.05
2019-05-16T07:18:54.787Z,102201.91
2019-05-16T07:21:24.366Z,102197.83
2019-05-16T07:23:55.442Z,102190.31
2019-05-16T07:26:24.704Z,102196.04
2019-05-16T07:28:53.849Z,102192.55
2019-05-16T07:31:23.032Z,102187.42
2019-05-16T07:33:52.466Z,102183.19
2019-05-16T07:36:31.456Z,102182.61
2019-05-16T07:39:01.778Z,102187.13
2019-05-16T07:41:36.165Z,102188.33
2019-05-16T07:44:05.675Z,102173.00
2019-05-16T07:46:35.194Z,102174.56
2019-05-16T07:49:04.504Z,102170.05
2019-05-16T07:51:33.691Z,102170.00
2019-05-16T07:54:02.864Z,102165.52
2019-05-16T07:56:32.373Z,102160.52
2019-05-16T07:59:01.965Z,102154.52
2019-05-16T08:01:37.209Z,102154.78
2019-05-16T08:04:06.349Z,102152.20
2019-05-16T08:06:35.521Z,102155.34
2019-05-16T08:09:13.617Z,102156.47
2019-05-16T08:11:50.182Z,102155.98
2019-05-16T08:14:21.202Z,102153.74
2019-05-16T08:16:54.882Z,102150.34
2019-05-16T08:19:25.287Z,102148.31
2019-05-16T08:21:54.804Z,102145.56
2019-05-16T08:24:24.084Z,102138.39
2019-05-16T08:27:01.273Z,102139.78
2019-05-16T08:29:34.070Z,102134.86
2019-05-16T08:32:06.173Z,102124.79
2019-05-16T08:34:42.128Z,102115.77
2019-05-16T08:37:32.889Z,102115.53
2019-05-16T08:39:42.690Z,102117.46
2019-05-16T08:42:13.195Z,102115.72
2019-05-16T08:44:44.220Z,102105.98
2019-05-16T08:47:14.042Z,102105.09
2019-05-16T08:49:46.529Z,102099.50
2019-05-16T08:52:16.966Z,102096.00
2019-05-16T08:54:52.322Z,102094.06
2019-05-16T08:57:28.054Z,102083.38
2019-05-16T08:59:57.397Z,102091.34
2019-05-16T09:02:33.548Z,102093.78
2019-05-16T09:05:04.369Z,102093.48
2019-05-16T09:07:31.897Z,102086.88
2019-05-16T09:10:02.081Z,102082.07
2019-05-16T09:12:32.248Z,102088.17
2019-05-16T09:15:02.292Z,102080.40
2019-05-16T09:17:38.373Z,102078.37
2019-05-16T09:20:07.463Z,102072.27
2019-05-16T09:22:37.886Z,102073.80
2019-05-16T09:25:08.354Z,102063.38
2019-05-16T09:27:38.253Z,102053.30
2019-05-16T09:30:08.238Z,102066.63
2019-05-16T09:32:42.291Z,102059.03
2019-05-16T09:35:11.156Z,102057.41
2019-05-16T09:37:40.337Z,102051.39
2019-05-16T09:40:10.213Z,102043.73
2019-05-16T09:42:41.737Z,102046.64
2019-05-16T09:45:11.131Z,102044.19
2019-05-16T09:47:40.478Z,102035.19
2019-05-16T09:50:12.052Z,102032.66
2019-05-16T09:52:43.039Z,102029.91
2019-05-16T09:55:12.671Z,102028.16
2019-05-16T09:57:43.706Z,102042.12
2019-05-16T10:00:21.395Z,102018.94
2019-05-16T10:02:50.884Z,102026.74
2019-05-16T10:05:21.882Z,102025.23
2019-05-16T10:07:52.946Z,102034.91
2019-05-16T10:10:26.299Z,102026.95
2019-05-16T10:12:56.971Z,102026.95
2019-05-16T10:15:26.977Z,102024.08
2019-05-16T10:17:57.521Z,102025.93
2019-05-16T10:20:36.570Z,102018.20
2019-05-16T10:23:14.300Z,102013.88
2019-05-16T10:25:37.725Z,102006.80
2019-05-16T10:28:07.574Z,102000.80
2019-05-16T10:30:37.664Z,101998.92
2019-05-16T10:33:07.336Z,101998.80
2019-05-16T10:35:37.454Z,102007.52
2019-05-16T10:38:10.837Z,101995.41
2019-05-16T10:40:41.839Z,101992.55
2019-05-16T10:43:11.072Z,101990.16
2019-05-16T10:45:40.500Z,101991.26
2019-05-16T10:48:10.814Z,101986.86
2019-05-16T10:50:40.394Z,101986.13
2019-05-16T10:53:32.362Z,101982.61
2019-05-16T10:55:40.973Z,101976.58
2019-05-16T10:58:11.731Z,101962.16
2019-05-16T11:01:07.373Z,101975.52
2019-05-16T11:03:12.129Z,101968.02
2019-05-16T11:05:41.626Z,101969.00
2019-05-16T11:08:10.962Z,101964.97
2019-05-16T11:10:40.065Z,101961.08
2019-05-16T11:13:12.145Z,101948.95
2019-05-16T11:15:42.834Z,101950.42
2019-05-16T11:18:13.845Z,101953.43
2019-05-16T11:20:47.872Z,101940.11
2019-05-16T11:23:14.642Z,101952.55
2019-05-16T11:25:44.184Z,101945.20
2019-05-16T11:28:17.460Z,101945.33
2019-05-16T11:30:47.611Z,101927.28
2019-05-16T11:33:17.572Z,101935.63
2019-05-16T11:35:47.780Z,101932.41
2019-05-16T11:38:17.925Z,101934.39
2019-05-16T11:40:47.873Z,101931.78
2019-05-16T11:43:21.908Z,101929.17
2019-05-16T11:45:51.115Z,101910.41
2019-05-16T11:48:19.976Z,101918.11
2019-05-16T11:50:49.263Z,101912.25
2019-05-16T11:53:18.431Z,101916.33
2019-05-16T11:55:56.178Z,101907.00
2019-05-16T11:58:22.270Z,101911.08
2019-05-16T12:00:50.801Z,101902.81
2019-05-16T12:03:20.098Z,101896.40
2019-05-16T12:05:53.135Z,101879.00
2019-05-16T12:08:26.518Z,101881.41
2019-05-16T12:10:56.529Z,101882.50
2019-05-16T12:13:31.849Z,101881.64
2019-05-16T12:15:58.012Z,101880.15
2019-05-16T12:18:28.668Z,101870.33
2019-05-16T12:20:58.642Z,101873.79
2019-05-16T12:23:28.191Z,101870.73
2019-05-16T12:26:00.143Z,101865.17
2019-05-16T12:28:29.147Z,101868.11
2019-05-16T12:30:59.230Z,101867.33
2019-05-16T12:33:29.771Z,101877.77
2019-05-16T12:36:00.819Z,101864.89
2019-05-16T12:38:32.289Z,101865.10
2019-05-16T12:41:06.978Z,101865.72
2019-05-16T12:43:46.221Z,101861.63
2019-05-16T12:46:08.308Z,101868.20
2019-05-16T12:48:37.424Z,101859.89
2019-05-16T12:51:08.578Z,101851.72
2019-05-16T12:53:40.031Z,101844.56
2019-05-16T12:56:09.581Z,101827.05
2019-05-16T12:58:42.711Z,101827.59
2019-05-16T13:01:12.167Z,101830.25
2019-05-16T13:03:42.960Z,101827.09
2019-05-16T13:06:12.630Z,101818.07
2019-05-16T13:08:42.105Z,101816.28
2019-05-16T13:11:11.283Z,101816.41
2019-05-16T13:13:40.618Z,101809.90
2019-05-16T13:16:11.547Z,101813.19
2019-05-16T13:18:40.688Z,101807.77
2019-05-16T13:21:18.398Z,101798.36
2019-05-16T13:23:46.811Z,101792.22
2019-05-16T13:26:17.651Z,101793.88
2019-05-16T13:28:47.943Z,101787.00
2019-05-16T13:31:17.824Z,101786.78
2019-05-16T13:33:52.098Z,101780.32
2019-05-16T13:36:21.379Z,101777.48
2019-05-16T13:39:16.977Z,101779.70
2019-05-16T13:41:37.971Z,101789.59
2019-05-16T13:44:18.508Z,101784.76
2019-05-16T13:46:40.878Z,101782.03
2019-05-16T13:49:11.975Z,101778.39
2019-05-16T13:51:46.115Z,101774.50
2019-05-16T13:54:17.618Z,101772.84
2019-05-16T13:56:48.586Z,101772.34
2019-05-16T13:59:19.031Z,101768.81
2019-05-16T14:01:49.487Z,101760.47
2019-05-16T14:04:23.679Z,101761.02
2019-05-16T14:06:58.678Z,101757.91
2019-05-16T14:09:28.171Z,101762.14
2019-05-16T14:12:00.270Z,101767.84
2019-05-16T14:14:37.499Z,101763.37
2019-05-16T14:17:12.120Z,101749.34
2019-05-16T14:19:43.583Z,101760.05
2019-05-16T14:22:28.126Z,101754.33
2019-05-16T14:25:15.275Z,101749.72
2019-05-16T14:27:47.529Z,101756.73
2019-05-16T14:30:19.408Z,101752.04
2019-05-16T14:32:52.184Z,101753.81
2019-05-16T14:35:21.498Z,101745.31
2019-05-16T14:38:00.912Z,101739.83
2019-05-16T14:40:30.500Z,101726.59
2019-05-16T14:43:04.134Z,101727.89
2019-05-16T14:45:37.007Z,101725.66
2019-05-16T14:48:07.513Z,101721.34
2019-05-16T14:50:38.286Z,101714.72
2019-05-16T14:53:07.705Z,101716.31
2019-05-16T14:55:38.606Z,101713.36
2019-05-16T14:58:07.908Z,101707.84
2019-05-16T15:00:38.382Z,101701.99
2019-05-16T15:03:08.605Z,101701.93
2019-05-16T15:05:42.866Z,101702.39
2019-05-16T15:08:12.486Z,101693.38
2019-05-16T15:10:42.013Z,101690.37
2019-05-16T15:13:13.610Z,101684.67
2019-05-16T15:15:43.166Z,101690.04
2019-05-16T15:18:12.145Z,101681.05
2019-05-16T15:20:41.556Z,101689.67
2019-05-16T15:23:14.008Z,101680.79
2019-05-16T15:25:44.789Z,101679.57
2019-05-16T15:28:17.028Z,101689.56
2019-05-16T15:30:47.820Z,101691.92
2019-05-16T15:33:19.877Z,101684.22
2019-05-16T15:35:48.392Z,101686.12
2019-05-16T15:38:17.784Z,101676.83
2019-05-16T15:40:48.149Z,101688.31
2019-05-16T15:43:21.962Z,101686.19
2019-05-16T15:45:53.131Z,101680.20
2019-05-16T15:48:23.020Z,101684.89
2019-05-16T15:50:53.150Z,101674.02
2019-05-16T15:53:24.049Z,101679.71
2019-05-16T15:55:54.368Z,101680.31
2019-05-16T15:58:26.677Z,101681.78
2019-05-16T16:00:57.933Z,101682.30
2019-05-16T16:03:27.506Z,101684.66
2019-05-16T16:05:56.559Z,101682.75
2019-05-16T16:08:29.288Z,101681.00
2019-05-16T16:10:58.442Z,101678.43
2019-05-16T16:13:29.731Z,101683.17
2019-05-16T16:15:59.021Z,101684.34
2019-05-16T16:18:29.668Z,101677.95
2019-05-16T16:21:00.931Z,101680.09
2019-05-16T16:23:30.633Z,101675.16
2019-05-16T16:26:00.041Z,101666.70
2019-05-16T16:28:33.588Z,101658.58
2019-05-16T16:31:04.352Z,101664.78
2019-05-16T16:33:33.681Z,101651.22
2019-05-16T16:36:03.641Z,101656.26
2019-05-16T16:38:32.979Z,101646.19
2019-05-16T16:41:03.373Z,101645.97
2019-05-16T16:43:32.714Z,101640.91
2019-05-16T16:46:08.726Z,101641.30
2019-05-16T16:48:33.545Z,101636.46
2019-05-16T16:51:02.834Z,101627.94
2019-05-16T16:53:33.673Z,101632.98
2019-05-16T16:56:03.206Z,101622.72
2019-05-16T16:58:32.757Z,101611.30
2019-05-16T17:01:01.921Z,101607.62
2019-05-16T17:03:31.441Z,101605.48
2019-05-16T17:06:00.819Z,101593.58
2019-05-16T17:08:29.971Z,101594.06
2019-05-16T17:10:59.483Z,101600.25
2019-05-16T17:13:33.680Z,101591.72
2019-05-16T17:16:18.030Z,101593.30
2019-05-16T17:18:37.776Z,101589.23
2019-05-16T17:21:07.845Z,101584.56
2019-05-16T17:23:38.117Z,101576.83
2019-05-16T17:26:07.576Z,101579.73
2019-05-16T17:28:41.852Z,101576.73
2019-05-16T17:31:12.930Z,101578.56
2019-05-16T17:33:42.818Z,101570.48
2019-05-16T17:36:17.188Z,101567.66
2019-05-16T17:38:46.746Z,101566.58
2019-05-16T17:41:16.812Z,101568.69
2019-05-16T17:43:46.964Z,101561.53
2019-05-16T17:46:19.365Z,101558.34
2019-05-16T17:48:52.276Z,101555.63
2019-05-16T17:51:21.691Z,101555.06
2019-05-16T17:53:52.323Z,101544.70
2019-05-16T17:56:21.728Z,101550.23
2019-05-16T17:58:50.929Z,101535.58
2019-05-16T18:01:27.257Z,101543.33
2019-05-16T18:04:00.258Z,101539.08
2019-05-16T18:06:29.444Z,101534.63
2019-05-16T18:08:58.615Z,101534.24
2019-05-16T18:11:28.926Z,101523.98
2019-05-16T18:13:58.311Z,101517.99
2019-05-16T18:16:28.047Z,101521.29
2019-05-16T18:18:59.806Z,101523.52
2019-05-16T18:21:30.471Z,101518.19
2019-05-16T18:23:59.638Z,101517.33
2019-05-16T18:26:29.083Z,101507.36
2019-05-16T18:28:58.261Z,101505.78
2019-05-16T18:31:27.485Z,101500.56
2019-05-16T18:33:56.743Z,101499.02
2019-05-16T18:36:26.467Z,101493.41
2019-05-16T18:38:57.433Z,101494.77
2019-05-16T18:41:27.248Z,101492.63
2019-05-16T18:43:56.584Z,101485.86
2019-05-16T18:46:27.028Z,101484.50
2019-05-16T18:48:56.575Z,101470.67
2019-05-16T18:51:26.538Z,101473.00
2019-05-16T18:53:57.099Z,101460.72
2019-05-16T18:56:27.179Z,101460.91
2019-05-16T18:58:57.245Z,101449.89
2019-05-16T19:01:26.965Z,101446.41
2019-05-16T19:03:57.640Z,101442.84
2019-05-16T19:06:27.625Z,101437.70
2019-05-16T19:08:58.384Z,101436.25
2019-05-16T19:11:28.309Z,101427.08
2019-05-16T19:13:59.306Z,101425.88
2019-05-16T19:16:28.148Z,101425.50
2019-05-16T19:18:58.463Z,101420.67
2019-05-16T19:21:27.431Z,101412.16
2019-05-16T19:23:56.655Z,101413.52
2019-05-16T19:26:27.287Z,101409.84
2019-05-16T19:28:57.125Z,101418.16
2019-05-16T19:31:27.030Z,101405.88
2019-05-16T19:33:56.563Z,101413.34
2019-05-16T19:36:27.097Z,101409.66
2019-05-16T19:38:57.054Z,101409.08
2019-05-16T19:41:28.983Z,101408.59
2019-05-16T19:44:02.498Z,101413.91
2019-05-16T19:46:32.119Z,101406.56
2019-05-16T19:49:01.436Z,101408.30
2019-05-16T19:51:30.787Z,101403.84
2019-05-16T19:53:59.984Z,101407.53
2019-05-16T19:56:29.156Z,101402.11
2019-05-16T19:58:58.334Z,101401.53
2019-05-16T20:01:27.682Z,101403.47
2019-05-16T20:03:58.369Z,101401.14
2019-05-16T20:06:27.597Z,101404.81
2019-05-16T20:08:59.697Z,101401.72
2019-05-16T20:11:29.006Z,101396.31
2019-05-16T20:14:00.241Z,101397.47
2019-05-16T20:16:29.490Z,101393.61
2019-05-16T20:19:03.628Z,101392.25
2019-05-16T20:21:33.000Z,101391.00
2019-05-16T20:24:02.311Z,101387.03
2019-05-16T20:26:31.803Z,101378.05
2019-05-16T20:29:07.762Z,101376.20
2019-05-16T20:31:37.035Z,101386.65
2019-05-16T20:34:09.092Z,101384.05
2019-05-16T20:36:37.287Z,101375.63
2019-05-16T20:39:09.708Z,101380.08
2019-05-16T20:41:42.046Z,101373.31
2019-05-16T20:44:11.388Z,101368.38
2019-05-16T20:46:40.606Z,101366.16
2019-05-16T20:49:09.932Z,101363.84
2019-05-16T20:51:39.106Z,101365.67
2019-05-16T20:54:08.259Z,101365.78
2019-05-16T20:56:39.051Z,101365.36
2019-05-16T20:59:09.676Z,101357.81
2019-05-16T21:01:38.849Z,101367.68
2019-05-16T21:04:08.187Z,101370.38
2019-05-16T21:06:37.405Z,101372.13
2019-05-16T21:09:08.358Z,101362.09
2019-05-16T21:14:42.805Z,101359.56
2019-05-16T21:17:11.971Z,101361.11
2019-05-16T21:19:41.241Z,101351.64
2019-05-16T21:22:10.816Z,101355.31
2019-05-16T21:24:39.969Z,101355.41
2019-05-16T21:27:09.149Z,101351.06
2019-05-16T21:29:43.342Z,101346.23
2019-05-16T21:32:12.046Z,101353.30
2019-05-16T21:34:41.260Z,101340.35
2019-05-16T21:37:16.851Z,101350.86
2019-05-16T21:39:41.437Z,101350.08
2019-05-16T21:42:12.335Z,101353.86
2019-05-16T21:44:41.708Z,101345.84
2019-05-16T21:47:10.868Z,101343.33
2019-05-16T21:49:40.048Z,101342.17
2019-05-16T21:52:09.368Z,101336.92
2019-05-16T21:54:38.600Z,101340.30
2019-05-16T21:57:07.758Z,101341.91
2019-05-16T21:59:37.685Z,101348.39
2019-05-16T22:02:12.007Z,101339.98
2019-05-16T22:04:39.882Z,101342.30
2019-05-16T22:07:09.259Z,101335.73
2019-05-16T22:09:41.252Z,101339.02
2019-05-16T22:12:14.368Z,101330.62
2019-05-16T22:14:51.890Z,101330.88
2019-05-16T22:17:21.124Z,101327.59
2019-05-16T22:19:53.033Z,101323.34
2019-05-16T22:22:22.762Z,101324.40
2019-05-16T22:24:51.267Z,101327.00
2019-05-16T22:27:20.456Z,101321.36
2019-05-16T22:29:53.049Z,101322.03
2019-05-16T22:32:22.321Z,101323.28
2019-05-16T22:34:51.938Z,101329.45
2019-05-16T22:37:21.136Z,101315.89
2019-05-16T22:39:54.073Z,101315.60
2019-05-16T22:42:23.330Z,101315.31
2019-05-16T22:44:52.555Z,101311.44
2019-05-16T22:47:26.472Z,101311.63
2019-05-16T22:49:59.402Z,101308.05
2019-05-16T22:52:31.299Z,101305.36
2019-05-16T22:55:00.471Z,101307.19
2019-05-16T22:57:29.679Z,101300.43
2019-05-16T23:00:00.579Z,101307.96
2019-05-16T23:02:30.230Z,101304.48
2019-05-16T23:05:03.125Z,101297.34
2019-05-16T23:07:32.285Z,101305.06
2019-05-16T23:10:01.450Z,101304.19
2019-05-16T23:12:30.624Z,101304.67
2019-05-16T23:15:00.058Z,101301.97
2019-05-16T23:17:29.394Z,101300.23
2019-05-16T23:19:58.800Z,101302.16
2019-05-16T23:22:29.700Z,101295.95
2019-05-16T23:24:58.984Z,101295.95
2019-05-16T23:27:28.149Z,101291.02
2019-05-16T23:30:01.067Z,101286.19
2019-05-16T23:32:30.540Z,101286.28
2019-05-16T23:35:06.864Z,101285.90
2019-05-16T23:37:37.003Z,101283.86
2019-05-16T23:40:06.936Z,101280.30
2019-05-16T23:42:37.108Z,101281.73
2019-05-16T23:45:08.951Z,101280.48
2019-05-16T23:47:38.560Z,101275.08
2019-05-16T23:50:08.837Z,101276.04
2019-05-16T23:52:37.310Z,101273.91
2019-05-16T23:55:08.998Z,101271.21
2019-05-16T23:57:38.558Z,101274.09
